Vremea acum in Curtea De Arges - Romania

Vrei sa afli care e starea vremii acum in Valcea - Romania? Dorim sa iti furnizam starea vremii pentru Valcea - Romania. Starea vremii Valcea - Romania pentru astazi.

Vremea acum in Curtea De Arges

Temperatura: 21 °C

Se simte ca: 21 °C
Innorat: 0 %
Precipitatii: 0 %
Presiune atmosferica: 1024 hPa
Umiditate: 31%
Vizibilitate: 10 km
Vantul bate din S cu 0 km/h

Evolutia vremii in Curtea De Arges pe ore

Ora: 14:00
Parțial noros
Temperatura: 21.1°C
Sansa de precipitatii: 0%
Ora Descriere Temp Se simte Precipitatii Umiditate Vant
00:00Parțial noros7.7°0%43%N 8.3 KM/H
01:00Parțial noros8.8°7.6°0%42%N 8.3 KM/H
02:00Parțial noros8.7°7.4°0%41%N 8.3 KM/H
03:00Parțial noros8.7°7.4°0%42%N 8.3 KM/H
04:00Parțial noros8.6°7.4°0%42%N 7.9 KM/H
05:00Parțial noros8.6°7.4°0%43%N 7.9 KM/H
06:00Parțial noros9.5°8.6°0%43%N 7.2 KM/H
07:00Parțial noros10.5°9.9°0%43%N 6.5 KM/H
08:00Parțial noros11.4°11.1°0%42%N 5.8 KM/H
09:00Parțial noros14°13.8°0%38%ENE 5 KM/H
10:00Parțial noros16.5°16.4°0%34%ESE 4.7 KM/H
11:00Parțial noros19.1°19.1°0%29%S 4 KM/H
12:00Parțial noros19.8°19.8°0%28%S 4 KM/H
13:00Parțial noros20.4°20.4°0%27%SSE 4.3 KM/H
14:00Parțial noros21.1°21.1°0%26%SSE 4.3 KM/H
15:00Parțial noros19.5°19.5°0%30%SSE 3.6 KM/H
16:00Parțial noros18°18°0%35%SSE 3.2 KM/H
17:00Parțial noros16.4°16.4°0%40%SSE 2.5 KM/H
18:00Parțial noros14.9°14.8°0%42%ESE 4 KM/H
19:00Parțial noros13.5°13.3°0%45%ENE 5 KM/H
20:00Parțial noros12°11.7°0%47%NNE 6.5 KM/H
21:00Parțial noros11.7°11.2°0%48%NNE 6.8 KM/H
22:00Parțial noros11.3°10.8°0%49%NNE 7.2 KM/H
23:00Parțial noros11°10.3°0%49%N 7.6 KM/H